sensor_id;sensor_type;location;lat;lon;timestamp;P1;durP1;ratioP1;P2;durP2;ratioP2
7703;SDS011;3894;49.700;10.770;2023-02-28T00:00:35;4.10;;;1.23;;
7703;SDS011;3894;49.700;10.770;2023-02-28T00:03:01;7.45;;;1.75;;
7703;SDS011;3894;49.700;10.770;2023-02-28T00:05:28;6.72;;;1.70;;
7703;SDS011;3894;49.700;10.770;2023-02-28T00:07:54;6.65;;;1.70;;
7703;SDS011;3894;49.700;10.770;2023-02-28T00:10:22;4.68;;;1.42;;
7703;SDS011;3894;49.700;10.770;2023-02-28T00:12:50;5.75;;;1.42;;
7703;SDS011;3894;49.700;10.770;2023-02-28T00:15:17;5.18;;;1.48;;
7703;SDS011;3894;49.700;10.770;2023-02-28T00:17:43;4.68;;;1.50;;
7703;SDS011;3894;49.700;10.770;2023-02-28T00:20:11;4.95;;;1.58;;
7703;SDS011;3894;49.700;10.770;2023-02-28T00:22:42;4.40;;;1.27;;
7703;SDS011;3894;49.700;10.770;2023-02-28T00:25:11;7.75;;;1.65;;
7703;SDS011;3894;49.700;10.770;2023-02-28T00:27:38;5.75;;;1.45;;
7703;SDS011;3894;49.700;10.770;2023-02-28T00:30:05;5.38;;;1.67;;
7703;SDS011;3894;49.700;10.770;2023-02-28T00:32:33;4.10;;;1.25;;
7703;SDS011;3894;49.700;10.770;2023-02-28T00:35:00;5.28;;;1.73;;
7703;SDS011;3894;49.700;10.770;2023-02-28T00:37:26;6.90;;;2.08;;
7703;SDS011;3894;49.700;10.770;2023-02-28T00:39:52;4.70;;;1.20;;
7703;SDS011;3894;49.700;10.770;2023-02-28T00:42:18;6.28;;;1.70;;
7703;SDS011;3894;49.700;10.770;2023-02-28T00:44:46;5.32;;;1.67;;
7703;SDS011;3894;49.700;10.770;2023-02-28T00:47:15;4.97;;;1.58;;
7703;SDS011;3894;49.700;10.770;2023-02-28T00:49:41;4.80;;;1.33;;
7703;SDS011;3894;49.700;10.770;2023-02-28T00:52:06;5.28;;;1.55;;
7703;SDS011;3894;49.700;10.770;2023-02-28T00:54:32;7.20;;;1.88;;
7703;SDS011;3894;49.700;10.770;2023-02-28T00:56:58;4.30;;;1.75;;
7703;SDS011;3894;49.700;10.770;2023-02-28T00:59:24;6.22;;;1.80;;
7703;SDS011;3894;49.700;10.770;2023-02-28T01:01:49;4.63;;;1.35;;
7703;SDS011;3894;49.700;10.770;2023-02-28T01:04:15;5.82;;;1.83;;
7703;SDS011;3894;49.700;10.770;2023-02-28T01:06:43;5.95;;;1.65;;
7703;SDS011;3894;49.700;10.770;2023-02-28T01:09:09;5.20;;;1.90;;
7703;SDS011;3894;49.700;10.770;2023-02-28T01:11:35;6.53;;;1.70;;
7703;SDS011;3894;49.700;10.770;2023-02-28T01:14:01;8.05;;;2.03;;
7703;SDS011;3894;49.700;10.770;2023-02-28T01:16:28;9.18;;;2.13;;
7703;SDS011;3894;49.700;10.770;2023-02-28T01:18:54;6.28;;;2.28;;
7703;SDS011;3894;49.700;10.770;2023-02-28T01:21:20;7.18;;;2.53;;
7703;SDS011;3894;49.700;10.770;2023-02-28T01:23:50;5.57;;;1.73;;
7703;SDS011;3894;49.700;10.770;2023-02-28T01:26:19;5.57;;;1.40;;
7703;SDS011;3894;49.700;10.770;2023-02-28T01:28:46;5.78;;;1.67;;
7703;SDS011;3894;49.700;10.770;2023-02-28T01:31:16;6.22;;;1.80;;
7703;SDS011;3894;49.700;10.770;2023-02-28T01:33:43;6.22;;;1.52;;
7703;SDS011;3894;49.700;10.770;2023-02-28T01:36:13;4.95;;;1.42;;
7703;SDS011;3894;49.700;10.770;2023-02-28T01:38:43;6.50;;;1.95;;
7703;SDS011;3894;49.700;10.770;2023-02-28T01:41:12;7.07;;;2.40;;
7703;SDS011;3894;49.700;10.770;2023-02-28T01:46:13;7.05;;;1.98;;
7703;SDS011;3894;49.700;10.770;2023-02-28T01:48:46;5.50;;;1.50;;
7703;SDS011;3894;49.700;10.770;2023-02-28T01:51:22;8.57;;;2.05;;
7703;SDS011;3894;49.700;10.770;2023-02-28T01:53:55;5.72;;;1.58;;
7703;SDS011;3894;49.700;10.770;2023-02-28T01:56:26;5.60;;;1.77;;
7703;SDS011;3894;49.700;10.770;2023-02-28T01:58:56;6.15;;;1.60;;
7703;SDS011;3894;49.700;10.770;2023-02-28T02:01:22;6.30;;;1.90;;
7703;SDS011;3894;49.700;10.770;2023-02-28T02:03:51;5.30;;;1.77;;
7703;SDS011;3894;49.700;10.770;2023-02-28T02:06:23;6.60;;;1.55;;
7703;SDS011;3894;49.700;10.770;2023-02-28T02:08:52;5.22;;;1.70;;
7703;SDS011;3894;49.700;10.770;2023-02-28T02:11:19;5.35;;;1.65;;
7703;SDS011;3894;49.700;10.770;2023-02-28T02:16:27;4.40;;;1.65;;
7703;SDS011;3894;49.700;10.770;2023-02-28T02:25:10;4.93;;;1.63;;
7703;SDS011;3894;49.700;10.770;2023-02-28T02:36:42;4.88;;;1.33;;
7703;SDS011;3894;49.700;10.770;2023-02-28T02:44:24;5.15;;;1.70;;
7703;SDS011;3894;49.700;10.770;2023-02-28T02:47:30;8.65;;;1.75;;
7703;SDS011;3894;49.700;10.770;2023-02-28T02:49:57;6.63;;;1.40;;
7703;SDS011;3894;49.700;10.770;2023-02-28T02:52:31;7.05;;;1.83;;
7703;SDS011;3894;49.700;10.770;2023-02-28T02:55:03;5.85;;;1.73;;
7703;SDS011;3894;49.700;10.770;2023-02-28T02:57:35;5.32;;;2.10;;
7703;SDS011;3894;49.700;10.770;2023-02-28T03:00:05;7.05;;;1.85;;
7703;SDS011;3894;49.700;10.770;2023-02-28T03:02:35;6.15;;;1.45;;
7703;SDS011;3894;49.700;10.770;2023-02-28T03:05:12;6.53;;;2.53;;
7703;SDS011;3894;49.700;10.770;2023-02-28T03:07:43;7.93;;;1.52;;
7703;SDS011;3894;49.700;10.770;2023-02-28T03:10:25;6.75;;;1.83;;
7703;SDS011;3894;49.700;10.770;2023-02-28T03:12:58;5.00;;;1.70;;
7703;SDS011;3894;49.700;10.770;2023-02-28T03:15:58;5.72;;;1.40;;
7703;SDS011;3894;49.700;10.770;2023-02-28T03:26:39;6.28;;;1.85;;
7703;SDS011;3894;49.700;10.770;2023-02-28T03:29:13;6.30;;;1.92;;
7703;SDS011;3894;49.700;10.770;2023-02-28T03:31:48;7.90;;;1.80;;
7703;SDS011;3894;49.700;10.770;2023-02-28T03:34:40;6.05;;;1.92;;
7703;SDS011;3894;49.700;10.770;2023-02-28T03:37:12;6.90;;;2.13;;
7703;SDS011;3894;49.700;10.770;2023-02-28T03:39:43;6.93;;;2.20;;
7703;SDS011;3894;49.700;10.770;2023-02-28T03:44:57;6.22;;;2.03;;
7703;SDS011;3894;49.700;10.770;2023-02-28T03:47:32;4.90;;;1.83;;
7703;SDS011;3894;49.700;10.770;2023-02-28T03:50:21;8.45;;;1.88;;
7703;SDS011;3894;49.700;10.770;2023-02-28T03:53:01;7.75;;;2.65;;
7703;SDS011;3894;49.700;10.770;2023-02-28T03:56:07;7.10;;;2.00;;
7703;SDS011;3894;49.700;10.770;2023-02-28T03:58:57;7.88;;;2.42;;
7703;SDS011;3894;49.700;10.770;2023-02-28T04:01:29;6.00;;;2.08;;
7703;SDS011;3894;49.700;10.770;2023-02-28T04:04:03;6.95;;;1.38;;
7703;SDS011;3894;49.700;10.770;2023-02-28T04:06:30;7.25;;;2.45;;
7703;SDS011;3894;49.700;10.770;2023-02-28T04:08:57;7.28;;;2.20;;
7703;SDS011;3894;49.700;10.770;2023-02-28T04:11:39;6.28;;;1.73;;
7703;SDS011;3894;49.700;10.770;2023-02-28T04:14:11;7.25;;;1.88;;
7703;SDS011;3894;49.700;10.770;2023-02-28T04:16:40;6.75;;;2.22;;
7703;SDS011;3894;49.700;10.770;2023-02-28T04:19:07;8.32;;;2.22;;
7703;SDS011;3894;49.700;10.770;2023-02-28T04:21:35;5.53;;;1.60;;
7703;SDS011;3894;49.700;10.770;2023-02-28T04:24:08;6.57;;;1.88;;
7703;SDS011;3894;49.700;10.770;2023-02-28T04:26:39;6.20;;;2.20;;
7703;SDS011;3894;49.700;10.770;2023-02-28T04:29:06;5.95;;;2.40;;
7703;SDS011;3894;49.700;10.770;2023-02-28T04:31:32;7.32;;;2.17;;
7703;SDS011;3894;49.700;10.770;2023-02-28T04:33:59;7.97;;;2.17;;
7703;SDS011;3894;49.700;10.770;2023-02-28T04:36:28;5.07;;;2.00;;
7703;SDS011;3894;49.700;10.770;2023-02-28T04:38:54;7.18;;;2.15;;
7703;SDS011;3894;49.700;10.770;2023-02-28T04:41:20;8.23;;;2.95;;
7703;SDS011;3894;49.700;10.770;2023-02-28T04:43:46;6.68;;;2.05;;
7703;SDS011;3894;49.700;10.770;2023-02-28T04:46:15;6.28;;;1.83;;
7703;SDS011;3894;49.700;10.770;2023-02-28T04:48:42;7.50;;;3.08;;
7703;SDS011;3894;49.700;10.770;2023-02-28T04:51:13;6.13;;;2.22;;
7703;SDS011;3894;49.700;10.770;2023-02-28T04:53:40;5.65;;;2.30;;
7703;SDS011;3894;49.700;10.770;2023-02-28T04:56:07;7.47;;;2.60;;
7703;SDS011;3894;49.700;10.770;2023-02-28T04:58:38;7.30;;;2.22;;
7703;SDS011;3894;49.700;10.770;2023-02-28T05:01:05;7.43;;;2.05;;
7703;SDS011;3894;49.700;10.770;2023-02-28T05:03:39;8.05;;;2.53;;
7703;SDS011;3894;49.700;10.770;2023-02-28T05:06:08;7.35;;;2.38;;
7703;SDS011;3894;49.700;10.770;2023-02-28T05:08:37;7.72;;;2.40;;
7703;SDS011;3894;49.700;10.770;2023-02-28T05:11:03;9.50;;;2.95;;
7703;SDS011;3894;49.700;10.770;2023-02-28T05:13:31;6.93;;;2.67;;
7703;SDS011;3894;49.700;10.770;2023-02-28T05:16:03;7.07;;;2.80;;
7703;SDS011;3894;49.700;10.770;2023-02-28T05:18:29;6.53;;;2.53;;
7703;SDS011;3894;49.700;10.770;2023-02-28T05:20:54;7.15;;;2.40;;
7703;SDS011;3894;49.700;10.770;2023-02-28T05:23:20;6.50;;;2.22;;
7703;SDS011;3894;49.700;10.770;2023-02-28T05:25:47;9.00;;;3.13;;
7703;SDS011;3894;49.700;10.770;2023-02-28T05:28:17;6.88;;;2.10;;
7703;SDS011;3894;49.700;10.770;2023-02-28T05:30:42;6.13;;;2.75;;
7703;SDS011;3894;49.700;10.770;2023-02-28T05:33:09;6.70;;;2.38;;
7703;SDS011;3894;49.700;10.770;2023-02-28T05:35:39;7.80;;;3.03;;
7703;SDS011;3894;49.700;10.770;2023-02-28T05:38:08;9.25;;;2.90;;
7703;SDS011;3894;49.700;10.770;2023-02-28T05:40:34;7.43;;;2.72;;
7703;SDS011;3894;49.700;10.770;2023-02-28T05:43:03;7.10;;;2.47;;
7703;SDS011;3894;49.700;10.770;2023-02-28T05:45:29;8.15;;;2.53;;
7703;SDS011;3894;49.700;10.770;2023-02-28T05:47:55;6.93;;;2.35;;
7703;SDS011;3894;49.700;10.770;2023-02-28T05:50:20;8.27;;;3.15;;
7703;SDS011;3894;49.700;10.770;2023-02-28T05:52:52;7.55;;;2.83;;
7703;SDS011;3894;49.700;10.770;2023-02-28T05:55:18;7.40;;;3.00;;
7703;SDS011;3894;49.700;10.770;2023-02-28T05:57:43;7.07;;;2.28;;
7703;SDS011;3894;49.700;10.770;2023-02-28T06:00:09;8.85;;;3.28;;
7703;SDS011;3894;49.700;10.770;2023-02-28T06:02:37;7.10;;;2.72;;
7703;SDS011;3894;49.700;10.770;2023-02-28T06:05:04;11.07;;;3.88;;
7703;SDS011;3894;49.700;10.770;2023-02-28T06:07:34;6.95;;;2.40;;
7703;SDS011;3894;49.700;10.770;2023-02-28T06:09:59;7.50;;;2.83;;
7703;SDS011;3894;49.700;10.770;2023-02-28T06:12:25;7.90;;;2.45;;
7703;SDS011;3894;49.700;10.770;2023-02-28T06:14:53;9.43;;;3.00;;
7703;SDS011;3894;49.700;10.770;2023-02-28T06:17:21;8.82;;;2.90;;
7703;SDS011;3894;49.700;10.770;2023-02-28T06:19:46;11.43;;;3.30;;
7703;SDS011;3894;49.700;10.770;2023-02-28T06:22:13;7.25;;;2.63;;
7703;SDS011;3894;49.700;10.770;2023-02-28T06:24:38;8.07;;;3.20;;
7703;SDS011;3894;49.700;10.770;2023-02-28T06:27:04;10.95;;;3.10;;
7703;SDS011;3894;49.700;10.770;2023-02-28T06:29:31;10.30;;;3.08;;
7703;SDS011;3894;49.700;10.770;2023-02-28T06:31:58;8.02;;;3.00;;
7703;SDS011;3894;49.700;10.770;2023-02-28T06:34:24;7.75;;;3.33;;
7703;SDS011;3894;49.700;10.770;2023-02-28T06:36:50;7.13;;;2.60;;
7703;SDS011;3894;49.700;10.770;2023-02-28T06:39:16;7.60;;;2.85;;
7703;SDS011;3894;49.700;10.770;2023-02-28T06:41:46;10.50;;;3.58;;
7703;SDS011;3894;49.700;10.770;2023-02-28T06:44:13;10.48;;;3.40;;
7703;SDS011;3894;49.700;10.770;2023-02-28T06:46:42;7.30;;;3.10;;
7703;SDS011;3894;49.700;10.770;2023-02-28T06:49:10;9.88;;;3.00;;
7703;SDS011;3894;49.700;10.770;2023-02-28T06:51:36;10.18;;;2.83;;
7703;SDS011;3894;49.700;10.770;2023-02-28T06:54:04;9.00;;;3.50;;
7703;SDS011;3894;49.700;10.770;2023-02-28T06:56:30;9.48;;;3.35;;
7703;SDS011;3894;49.700;10.770;2023-02-28T06:58:55;11.77;;;3.75;;
7703;SDS011;3894;49.700;10.770;2023-02-28T07:01:21;11.25;;;3.70;;
7703;SDS011;3894;49.700;10.770;2023-02-28T07:03:48;9.98;;;2.90;;
7703;SDS011;3894;49.700;10.770;2023-02-28T07:08:53;8.73;;;2.80;;
7703;SDS011;3894;49.700;10.770;2023-02-28T07:11:20;8.05;;;3.22;;
7703;SDS011;3894;49.700;10.770;2023-02-28T07:13:50;8.93;;;3.22;;
7703;SDS011;3894;49.700;10.770;2023-02-28T07:16:20;11.48;;;3.00;;
7703;SDS011;3894;49.700;10.770;2023-02-28T07:18:46;11.27;;;3.83;;
7703;SDS011;3894;49.700;10.770;2023-02-28T07:21:12;8.85;;;3.28;;
7703;SDS011;3894;49.700;10.770;2023-02-28T07:23:38;10.93;;;3.78;;
7703;SDS011;3894;49.700;10.770;2023-02-28T07:26:07;9.63;;;3.60;;
7703;SDS011;3894;49.700;10.770;2023-02-28T07:28:40;11.43;;;3.78;;
7703;SDS011;3894;49.700;10.770;2023-02-28T07:31:09;10.38;;;3.38;;
7703;SDS011;3894;49.700;10.770;2023-02-28T07:33:35;10.38;;;3.45;;
7703;SDS011;3894;49.700;10.770;2023-02-28T07:36:08;9.63;;;3.65;;
7703;SDS011;3894;49.700;10.770;2023-02-28T07:38:42;10.10;;;3.40;;
7703;SDS011;3894;49.700;10.770;2023-02-28T07:41:11;6.97;;;2.58;;
7703;SDS011;3894;49.700;10.770;2023-02-28T07:43:39;8.90;;;4.93;;
7703;SDS011;3894;49.700;10.770;2023-02-28T07:46:06;10.18;;;3.47;;
7703;SDS011;3894;49.700;10.770;2023-02-28T07:48:33;8.10;;;3.05;;
7703;SDS011;3894;49.700;10.770;2023-02-28T07:50:59;12.93;;;4.32;;
7703;SDS011;3894;49.700;10.770;2023-02-28T07:53:26;8.65;;;3.20;;
7703;SDS011;3894;49.700;10.770;2023-02-28T07:55:56;9.77;;;4.00;;
7703;SDS011;3894;49.700;10.770;2023-02-28T07:58:25;10.25;;;3.63;;
7703;SDS011;3894;49.700;10.770;2023-02-28T08:00:51;11.00;;;3.97;;
7703;SDS011;3894;49.700;10.770;2023-02-28T08:03:21;10.45;;;3.28;;
7703;SDS011;3894;49.700;10.770;2023-02-28T08:05:48;9.73;;;3.35;;
7703;SDS011;3894;49.700;10.770;2023-02-28T08:08:14;11.32;;;4.38;;
7703;SDS011;3894;49.700;10.770;2023-02-28T08:10:41;10.45;;;4.20;;
7703;SDS011;3894;49.700;10.770;2023-02-28T08:15:34;10.43;;;4.25;;
7703;SDS011;3894;49.700;10.770;2023-02-28T08:18:01;9.38;;;3.58;;
7703;SDS011;3894;49.700;10.770;2023-02-28T08:20:29;10.18;;;4.18;;
7703;SDS011;3894;49.700;10.770;2023-02-28T08:25:21;9.15;;;3.53;;
7703;SDS011;3894;49.700;10.770;2023-02-28T08:27:46;11.32;;;4.28;;
7703;SDS011;3894;49.700;10.770;2023-02-28T08:30:13;10.98;;;4.18;;
7703;SDS011;3894;49.700;10.770;2023-02-28T08:32:42;9.00;;;3.70;;
7703;SDS011;3894;49.700;10.770;2023-02-28T08:35:08;10.82;;;3.88;;
7703;SDS011;3894;49.700;10.770;2023-02-28T08:37:34;12.77;;;4.22;;
7703;SDS011;3894;49.700;10.770;2023-02-28T08:40:00;10.20;;;3.78;;
7703;SDS011;3894;49.700;10.770;2023-02-28T08:42:29;11.10;;;4.20;;
7703;SDS011;3894;49.700;10.770;2023-02-28T08:44:54;11.30;;;3.97;;
7703;SDS011;3894;49.700;10.770;2023-02-28T08:47:20;10.77;;;4.22;;
7703;SDS011;3894;49.700;10.770;2023-02-28T08:49:45;11.15;;;4.18;;
7703;SDS011;3894;49.700;10.770;2023-02-28T08:52:11;12.23;;;3.97;;
7703;SDS011;3894;49.700;10.770;2023-02-28T08:54:37;10.38;;;3.83;;
7703;SDS011;3894;49.700;10.770;2023-02-28T08:57:03;8.90;;;3.53;;
7703;SDS011;3894;49.700;10.770;2023-02-28T08:59:29;10.75;;;3.78;;
7703;SDS011;3894;49.700;10.770;2023-02-28T09:01:55;11.52;;;4.55;;
7703;SDS011;3894;49.700;10.770;2023-02-28T09:04:29;11.70;;;3.90;;
7703;SDS011;3894;49.700;10.770;2023-02-28T09:06:55;10.45;;;3.95;;
7703;SDS011;3894;49.700;10.770;2023-02-28T09:09:21;9.18;;;4.07;;
7703;SDS011;3894;49.700;10.770;2023-02-28T09:11:49;11.23;;;4.18;;
7703;SDS011;3894;49.700;10.770;2023-02-28T09:14:15;12.68;;;4.30;;
7703;SDS011;3894;49.700;10.770;2023-02-28T09:16:42;15.13;;;4.05;;
7703;SDS011;3894;49.700;10.770;2023-02-28T09:19:10;9.60;;;3.75;;
7703;SDS011;3894;49.700;10.770;2023-02-28T09:21:36;13.18;;;4.38;;
7703;SDS011;3894;49.700;10.770;2023-02-28T09:24:02;11.85;;;4.20;;
7703;SDS011;3894;49.700;10.770;2023-02-28T09:26:28;7.30;;;3.42;;
7703;SDS011;3894;49.700;10.770;2023-02-28T09:28:54;9.35;;;3.70;;
7703;SDS011;3894;49.700;10.770;2023-02-28T09:31:21;9.77;;;4.22;;
7703;SDS011;3894;49.700;10.770;2023-02-28T09:33:49;11.18;;;4.22;;
7703;SDS011;3894;49.700;10.770;2023-02-28T09:38:42;13.65;;;4.40;;
7703;SDS011;3894;49.700;10.770;2023-02-28T09:41:13;9.55;;;4.40;;
7703;SDS011;3894;49.700;10.770;2023-02-28T09:44:02;9.45;;;3.88;;
7703;SDS011;3894;49.700;10.770;2023-02-28T09:46:37;13.02;;;4.95;;
7703;SDS011;3894;49.700;10.770;2023-02-28T09:49:16;11.45;;;3.95;;
7703;SDS011;3894;49.700;10.770;2023-02-28T09:54:24;9.10;;;4.50;;
7703;SDS011;3894;49.700;10.770;2023-02-28T09:56:58;10.90;;;3.95;;
7703;SDS011;3894;49.700;10.770;2023-02-28T09:59:37;11.45;;;3.60;;
7703;SDS011;3894;49.700;10.770;2023-02-28T10:05:13;9.27;;;3.88;;
7703;SDS011;3894;49.700;10.770;2023-02-28T10:11:01;8.57;;;3.75;;
7703;SDS011;3894;49.700;10.770;2023-02-28T10:16:38;9.55;;;3.40;;
7703;SDS011;3894;49.700;10.770;2023-02-28T10:25:23;9.98;;;3.65;;
7703;SDS011;3894;49.700;10.770;2023-02-28T10:27:59;9.30;;;3.30;;
7703;SDS011;3894;49.700;10.770;2023-02-28T10:30:30;8.82;;;2.83;;
7703;SDS011;3894;49.700;10.770;2023-02-28T10:32:56;10.02;;;3.35;;
7703;SDS011;3894;49.700;10.770;2023-02-28T10:35:22;9.60;;;3.67;;
7703;SDS011;3894;49.700;10.770;2023-02-28T10:40:25;7.55;;;2.90;;
7703;SDS011;3894;49.700;10.770;2023-02-28T10:42:58;7.80;;;3.25;;
7703;SDS011;3894;49.700;10.770;2023-02-28T10:45:26;8.05;;;3.15;;
7703;SDS011;3894;49.700;10.770;2023-02-28T10:48:04;9.05;;;3.40;;
7703;SDS011;3894;49.700;10.770;2023-02-28T10:58:47;10.25;;;3.45;;
7703;SDS011;3894;49.700;10.770;2023-02-28T11:04:04;8.27;;;3.63;;
7703;SDS011;3894;49.700;10.770;2023-02-28T11:09:41;7.50;;;3.13;;
7703;SDS011;3894;49.700;10.770;2023-02-28T11:12:23;7.63;;;3.17;;
7703;SDS011;3894;49.700;10.770;2023-02-28T11:14:56;9.57;;;3.58;;
7703;SDS011;3894;49.700;10.770;2023-02-28T11:17:29;7.82;;;3.28;;
7703;SDS011;3894;49.700;10.770;2023-02-28T11:20:05;9.55;;;3.65;;
7703;SDS011;3894;49.700;10.770;2023-02-28T11:22:39;9.57;;;3.60;;
7703;SDS011;3894;49.700;10.770;2023-02-28T11:25:13;7.18;;;3.33;;
7703;SDS011;3894;49.700;10.770;2023-02-28T11:27:48;8.65;;;3.83;;
7703;SDS011;3894;49.700;10.770;2023-02-28T11:30:28;11.27;;;3.65;;
7703;SDS011;3894;49.700;10.770;2023-02-28T11:32:54;10.98;;;3.80;;
7703;SDS011;3894;49.700;10.770;2023-02-28T11:40:35;8.18;;;3.72;;
7703;SDS011;3894;49.700;10.770;2023-02-28T11:43:45;10.95;;;3.75;;
7703;SDS011;3894;49.700;10.770;2023-02-28T12:37:07;14.18;;;3.45;;
7703;SDS011;3894;49.700;10.770;2023-02-28T12:39:46;7.82;;;3.42;;
7703;SDS011;3894;49.700;10.770;2023-02-28T12:50:07;10.10;;;3.72;;
7703;SDS011;3894;49.700;10.770;2023-02-28T12:58:54;7.20;;;2.65;;
7703;SDS011;3894;49.700;10.770;2023-02-28T13:01:45;10.07;;;3.50;;
7703;SDS011;3894;49.700;10.770;2023-02-28T13:07:33;9.18;;;3.35;;
7703;SDS011;3894;49.700;10.770;2023-02-28T13:10:37;9.57;;;3.63;;
7703;SDS011;3894;49.700;10.770;2023-02-28T13:13:19;9.57;;;3.65;;
7703;SDS011;3894;49.700;10.770;2023-02-28T13:19:29;8.88;;;3.53;;
7703;SDS011;3894;49.700;10.770;2023-02-28T14:09:03;9.55;;;4.05;;
7703;SDS011;3894;49.700;10.770;2023-02-28T14:11:43;11.45;;;4.30;;
7703;SDS011;3894;49.700;10.770;2023-02-28T14:17:06;9.70;;;3.20;;
7703;SDS011;3894;49.700;10.770;2023-02-28T14:19:45;9.15;;;3.95;;
7703;SDS011;3894;49.700;10.770;2023-02-28T14:25:17;10.75;;;3.53;;
7703;SDS011;3894;49.700;10.770;2023-02-28T14:38:50;11.02;;;3.65;;
7703;SDS011;3894;49.700;10.770;2023-02-28T14:41:29;10.15;;;3.70;;
7703;SDS011;3894;49.700;10.770;2023-02-28T14:44:00;10.07;;;3.83;;
7703;SDS011;3894;49.700;10.770;2023-02-28T15:07:14;11.30;;;3.75;;
7703;SDS011;3894;49.700;10.770;2023-02-28T15:09:42;10.05;;;3.42;;
7703;SDS011;3894;49.700;10.770;2023-02-28T15:12:13;8.65;;;3.30;;
7703;SDS011;3894;49.700;10.770;2023-02-28T15:19:51;9.25;;;3.55;;
7703;SDS011;3894;49.700;10.770;2023-02-28T15:22:19;11.50;;;4.07;;
7703;SDS011;3894;49.700;10.770;2023-02-28T15:25:00;10.25;;;4.38;;
7703;SDS011;3894;49.700;10.770;2023-02-28T15:27:31;8.32;;;3.72;;
7703;SDS011;3894;49.700;10.770;2023-02-28T15:30:12;8.98;;;3.75;;
7703;SDS011;3894;49.700;10.770;2023-02-28T15:32:42;11.10;;;4.18;;
7703;SDS011;3894;49.700;10.770;2023-02-28T15:35:20;9.27;;;3.45;;
7703;SDS011;3894;49.700;10.770;2023-02-28T15:37:54;9.25;;;3.47;;
7703;SDS011;3894;49.700;10.770;2023-02-28T15:40:26;9.70;;;4.15;;
7703;SDS011;3894;49.700;10.770;2023-02-28T15:43:12;10.98;;;4.07;;
7703;SDS011;3894;49.700;10.770;2023-02-28T15:48:23;10.75;;;3.90;;
7703;SDS011;3894;49.700;10.770;2023-02-28T15:50:57;12.18;;;4.80;;
7703;SDS011;3894;49.700;10.770;2023-02-28T15:56:13;10.75;;;3.30;;
7703;SDS011;3894;49.700;10.770;2023-02-28T15:58:49;8.52;;;3.78;;
7703;SDS011;3894;49.700;10.770;2023-02-28T16:01:19;10.50;;;3.83;;
7703;SDS011;3894;49.700;10.770;2023-02-28T16:03:50;11.40;;;4.10;;
7703;SDS011;3894;49.700;10.770;2023-02-28T16:08:49;9.02;;;3.83;;
7703;SDS011;3894;49.700;10.770;2023-02-28T16:11:19;9.55;;;4.35;;
7703;SDS011;3894;49.700;10.770;2023-02-28T16:13:47;13.05;;;4.00;;
7703;SDS011;3894;49.700;10.770;2023-02-28T16:16:17;10.13;;;3.88;;
7703;SDS011;3894;49.700;10.770;2023-02-28T16:18:45;10.77;;;4.18;;
7703;SDS011;3894;49.700;10.770;2023-02-28T16:21:14;10.32;;;3.63;;
7703;SDS011;3894;49.700;10.770;2023-02-28T16:26:18;8.88;;;3.35;;
7703;SDS011;3894;49.700;10.770;2023-02-28T16:28:47;8.10;;;3.35;;
7703;SDS011;3894;49.700;10.770;2023-02-28T16:31:13;10.15;;;3.50;;
7703;SDS011;3894;49.700;10.770;2023-02-28T16:33:41;8.13;;;3.33;;
7703;SDS011;3894;49.700;10.770;2023-02-28T16:36:12;8.60;;;3.55;;
7703;SDS011;3894;49.700;10.770;2023-02-28T16:38:40;9.50;;;3.90;;
7703;SDS011;3894;49.700;10.770;2023-02-28T16:41:06;14.75;;;4.78;;
7703;SDS011;3894;49.700;10.770;2023-02-28T16:43:35;11.95;;;4.45;;
7703;SDS011;3894;49.700;10.770;2023-02-28T16:46:03;9.52;;;4.53;;
7703;SDS011;3894;49.700;10.770;2023-02-28T16:48:31;9.68;;;4.32;;
7703;SDS011;3894;49.700;10.770;2023-02-28T16:50:57;9.63;;;3.53;;
7703;SDS011;3894;49.700;10.770;2023-02-28T16:53:23;11.13;;;3.80;;
7703;SDS011;3894;49.700;10.770;2023-02-28T16:55:52;11.02;;;4.43;;
7703;SDS011;3894;49.700;10.770;2023-02-28T16:58:18;10.13;;;3.95;;
7703;SDS011;3894;49.700;10.770;2023-02-28T17:00:46;11.20;;;3.38;;
7703;SDS011;3894;49.700;10.770;2023-02-28T17:03:23;11.75;;;3.58;;
7703;SDS011;3894;49.700;10.770;2023-02-28T17:05:53;11.25;;;4.13;;
7703;SDS011;3894;49.700;10.770;2023-02-28T17:08:21;9.27;;;3.70;;
7703;SDS011;3894;49.700;10.770;2023-02-28T17:10:48;9.68;;;3.72;;
7703;SDS011;3894;49.700;10.770;2023-02-28T17:13:14;8.95;;;4.13;;
7703;SDS011;3894;49.700;10.770;2023-02-28T17:15:40;10.23;;;4.53;;
7703;SDS011;3894;49.700;10.770;2023-02-28T17:18:08;9.88;;;4.13;;
7703;SDS011;3894;49.700;10.770;2023-02-28T17:20:40;10.88;;;3.78;;
7703;SDS011;3894;49.700;10.770;2023-02-28T17:23:07;11.30;;;4.10;;
7703;SDS011;3894;49.700;10.770;2023-02-28T17:25:36;10.57;;;4.40;;
7703;SDS011;3894;49.700;10.770;2023-02-28T17:28:05;11.15;;;4.47;;
7703;SDS011;3894;49.700;10.770;2023-02-28T17:30:32;10.63;;;4.45;;
7703;SDS011;3894;49.700;10.770;2023-02-28T17:33:00;9.27;;;4.40;;
7703;SDS011;3894;49.700;10.770;2023-02-28T17:35:26;11.18;;;4.10;;
7703;SDS011;3894;49.700;10.770;2023-02-28T17:38:01;9.73;;;3.88;;
7703;SDS011;3894;49.700;10.770;2023-02-28T17:40:33;15.20;;;4.75;;
7703;SDS011;3894;49.700;10.770;2023-02-28T17:42:59;12.80;;;4.68;;
7703;SDS011;3894;49.700;10.770;2023-02-28T17:45:25;13.15;;;4.15;;
7703;SDS011;3894;49.700;10.770;2023-02-28T17:47:52;11.40;;;4.53;;
7703;SDS011;3894;49.700;10.770;2023-02-28T17:50:21;12.10;;;5.40;;
7703;SDS011;3894;49.700;10.770;2023-02-28T17:52:50;12.93;;;5.22;;
7703;SDS011;3894;49.700;10.770;2023-02-28T17:55:16;11.98;;;5.63;;
7703;SDS011;3894;49.700;10.770;2023-02-28T17:57:46;15.05;;;4.85;;
7703;SDS011;3894;49.700;10.770;2023-02-28T18:00:17;14.43;;;6.05;;
7703;SDS011;3894;49.700;10.770;2023-02-28T18:02:43;14.20;;;4.85;;
7703;SDS011;3894;49.700;10.770;2023-02-28T18:05:10;14.00;;;5.22;;
7703;SDS011;3894;49.700;10.770;2023-02-28T18:07:39;14.32;;;5.53;;
7703;SDS011;3894;49.700;10.770;2023-02-28T18:10:06;17.13;;;5.88;;
7703;SDS011;3894;49.700;10.770;2023-02-28T18:12:44;17.23;;;6.28;;
7703;SDS011;3894;49.700;10.770;2023-02-28T18:15:11;13.00;;;5.40;;
7703;SDS011;3894;49.700;10.770;2023-02-28T18:17:40;13.40;;;5.95;;
7703;SDS011;3894;49.700;10.770;2023-02-28T18:20:06;13.15;;;5.60;;
7703;SDS011;3894;49.700;10.770;2023-02-28T18:22:34;12.48;;;5.55;;
7703;SDS011;3894;49.700;10.770;2023-02-28T18:25:05;13.88;;;6.32;;
7703;SDS011;3894;49.700;10.770;2023-02-28T18:27:33;15.75;;;4.60;;
7703;SDS011;3894;49.700;10.770;2023-02-28T18:30:03;11.75;;;4.32;;
7703;SDS011;3894;49.700;10.770;2023-02-28T18:32:30;12.73;;;4.60;;
7703;SDS011;3894;49.700;10.770;2023-02-28T18:34:59;10.73;;;4.57;;
7703;SDS011;3894;49.700;10.770;2023-02-28T18:37:25;14.75;;;5.32;;
7703;SDS011;3894;49.700;10.770;2023-02-28T18:39:51;14.82;;;5.22;;
7703;SDS011;3894;49.700;10.770;2023-02-28T18:42:18;18.60;;;5.85;;
7703;SDS011;3894;49.700;10.770;2023-02-28T18:44:53;18.33;;;6.65;;
7703;SDS011;3894;49.700;10.770;2023-02-28T18:47:19;14.48;;;5.13;;
7703;SDS011;3894;49.700;10.770;2023-02-28T18:49:45;12.95;;;4.35;;
7703;SDS011;3894;49.700;10.770;2023-02-28T18:52:11;10.02;;;5.45;;
7703;SDS011;3894;49.700;10.770;2023-02-28T18:54:37;10.98;;;5.30;;
7703;SDS011;3894;49.700;10.770;2023-02-28T18:57:03;10.35;;;4.00;;
7703;SDS011;3894;49.700;10.770;2023-02-28T18:59:29;10.65;;;4.65;;
7703;SDS011;3894;49.700;10.770;2023-02-28T19:01:55;11.07;;;5.38;;
7703;SDS011;3894;49.700;10.770;2023-02-28T19:04:22;12.23;;;5.38;;
7703;SDS011;3894;49.700;10.770;2023-02-28T19:06:48;12.55;;;4.72;;
7703;SDS011;3894;49.700;10.770;2023-02-28T19:09:14;12.70;;;5.68;;
7703;SDS011;3894;49.700;10.770;2023-02-28T19:11:40;13.90;;;6.55;;
7703;SDS011;3894;49.700;10.770;2023-02-28T19:14:06;12.65;;;5.38;;
7703;SDS011;3894;49.700;10.770;2023-02-28T19:16:33;15.07;;;6.47;;
7703;SDS011;3894;49.700;10.770;2023-02-28T19:18:59;12.70;;;6.25;;
7703;SDS011;3894;49.700;10.770;2023-02-28T19:21:25;13.93;;;6.72;;
7703;SDS011;3894;49.700;10.770;2023-02-28T19:23:51;12.75;;;6.05;;
7703;SDS011;3894;49.700;10.770;2023-02-28T19:26:19;14.30;;;5.97;;
7703;SDS011;3894;49.700;10.770;2023-02-28T19:28:47;13.43;;;5.78;;